Des Moines, IA (50301)

5:21 PM CST on February 09, 2016 (GMT -0600)
Witmer Park | | Change Station
CLOSE
Current Station
Personal Weather Station
Location: Des Moines, IA
Elevation: 892 ft
Nearby Weather Stations

Elev 892 ft 41.61 °N, 93.66 °W | Updated 25 seconds ago

Clear
Clear
17.6 °F
Feels Like 18 °F
N
0.0
Wind Variable Wind from NW
Gusts 6.0 mph

Today
High -- | Low -- °F
--% Chance of Precip.
Yesterday
High -- | Low -- °F
Precip. -- in
Pressure 30.22 in
Visibility 10.0 miles
Clouds Few 2500 ft
Few 30000 ft
Windchill 18 °F
Dew Point 9 °F
Humidity 68%
Rainfall 0.00 in
Snow Depth Not available.
7:18 AM 5:39 PM
New Moon, 3% visible
METAR KDSM 092254Z 32018KT 10SM FEW025 FEW300 M08/M15 A3017 RMK AO2 PK WND 32029/2218 SLP232 T10781150
Pressure 30.22 in
Visibility 10.0 miles
Clouds Few 2500 ft
Few 30000 ft
Windchill 18 °F
Dew Point 9 °F
Humidity 68%
Rainfall 0.00 in
Snow Depth Not available.
7:18 AM 5:39 PM
New Moon, 3% visible
METAR KDSM 092254Z 32018KT 10SM FEW025 FEW300 M08/M15 A3017 RMK AO2 PK WND 32029/2218 SLP232 T10781150

10-Day Weather Forecast

Almanac

Astronomy

Feb. 09, 2016 Rise Set
Actual Time
Civil Twilight
Nautical Twilight
Astronomical Twilight
Moon
Length of Visible Light
Length of Day
Tomorrow will be .
, % of the Moon is Illuminated

Today's Extremes

State Highs State Lows

Community

WunderPhotos

Upload Photos

1,891,744 photos uploaded!

WunderBlog® & News

Nearby

Air Quality

  Air Quality AQ Index Pollutant
Not available.

Snow Depth

Station Depth Elevation

Earthquake Activity

City Distance Mag. Time & Date
Minimum magnitude displayed is 2.5.

Coastal Water Temperatures

Place Temperature

Stations

Nearby Weather Stations

Station Location Temp. Windchill Dew Point Humidity Wind Precip. Elev Updated Type
                   

Watches & Warnings

There are currently no watches in effect.